Time;durP1;ratioP1;P1;durP2;ratioP2;P2;SDS_P1;SDS_P2;PMS_P1;PMS_P2;Temp;Humidity;BMP_temperature;BMP_pressure;BME280_temperature;BME280_humidity;BME280_pressure;Samples;Min_cycle;Max_cycle;Signal;HPM_P1;HPM_P2
2022/03/04 00:02:19;;;;;;;0.40;0.40;;;3.50;99.90;;;;;;5024206;28;20301;-85
2022/03/04 00:04:44;;;;;;;0.70;0.67;;;3.60;99.90;;;;;;5021835;28;20237;-85
2022/03/04 00:07:11;;;;;;;1.83;0.90;;;3.60;99.90;;;;;;5018405;28;20245;-86
2022/03/04 00:09:36;;;;;;;0.60;0.60;;;3.50;99.90;;;;;;5025257;28;20213;-85
2022/03/04 00:12:03;;;;;;;0.70;0.70;;;3.50;99.90;;;;;;5021288;28;20184;-85
2022/03/04 00:14:29;;;;;;;1.60;1.50;;;3.60;99.90;;;;;;5027870;28;20201;-85
2022/03/04 00:16:55;;;;;;;3.57;0.80;;;3.50;99.90;;;;;;5021694;28;20274;-85
2022/03/04 00:19:21;;;;;;;1.70;0.73;;;3.40;99.90;;;;;;5029241;28;20246;-85
2022/03/04 00:21:49;;;;;;;2.17;1.93;;;3.40;99.90;;;;;;5026333;28;20266;-85
2022/03/04 00:24:19;;;;;;;1.77;1.27;;;3.40;99.90;;;;;;5027673;28;20186;-85
2022/03/04 00:26:46;;;;;;;0.67;0.40;;;3.30;99.90;;;;;;5023832;28;20188;-84
2022/03/04 00:29:12;;;;;;;0.50;0.50;;;3.40;99.90;;;;;;5026623;28;20247;-86
2022/03/04 00:31:39;;;;;;;0.97;0.93;;;3.30;99.90;;;;;;5026279;28;20199;-85
2022/03/04 00:34:06;;;;;;;1.47;1.37;;;3.40;99.90;;;;;;5028689;28;20751;-85
2022/03/04 00:36:41;;;;;;;0.90;0.67;;;3.30;99.90;;;;;;5025816;28;20189;-85
2022/03/04 00:39:09;;;;;;;2.17;2.07;;;3.30;99.90;;;;;;5027165;28;20590;-85
2022/03/04 00:41:35;;;;;;;1.83;1.23;;;3.30;99.90;;;;;;5028297;28;20182;-84
2022/03/04 00:44:01;;;;;;;1.00;0.93;;;3.20;99.90;;;;;;5027150;28;20792;-85
2022/03/04 00:46:27;;;;;;;3.20;0.97;;;3.10;99.90;;;;;;5026015;28;20190;-86
2022/03/04 00:48:52;;;;;;;0.60;0.60;;;3.10;99.90;;;;;;5022422;28;20574;-84
2022/03/04 00:51:18;;;;;;;1.23;1.13;;;3.10;99.90;;;;;;5023392;28;20190;-85
2022/03/04 00:53:44;;;;;;;0.87;0.77;;;3.10;99.90;;;;;;5023828;28;20265;-85
2022/03/04 00:56:11;;;;;;;0.73;0.73;;;3.00;99.90;;;;;;5025536;28;20198;-85
2022/03/04 00:58:38;;;;;;;1.80;1.10;;;3.00;99.90;;;;;;5025420;28;20223;-85
2022/03/04 01:01:04;;;;;;;0.90;0.90;;;3.00;99.90;;;;;;5026804;28;20197;-85
2022/03/04 01:03:30;;;;;;;0.70;0.70;;;3.00;99.90;;;;;;5028084;28;20189;-84
2022/03/04 01:05:55;;;;;;;0.63;0.40;;;3.10;99.90;;;;;;5022575;28;20838;-85
2022/03/04 01:08:21;;;;;;;1.90;0.90;;;3.10;99.90;;;;;;5025302;28;20199;-85
2022/03/04 01:10:47;;;;;;;1.47;1.07;;;3.00;99.90;;;;;;5027737;28;20267;-85
2022/03/04 01:13:13;;;;;;;0.50;0.50;;;3.10;99.90;;;;;;5026885;28;20281;-85
2022/03/04 01:15:39;;;;;;;1.47;1.37;;;3.00;99.90;;;;;;5026884;28;20208;-84
2022/03/04 01:18:05;;;;;;;0.53;0.53;;;2.90;99.90;;;;;;5025265;28;20192;-85
2022/03/04 01:20:31;;;;;;;0.70;0.70;;;2.90;99.90;;;;;;5023092;28;20216;-84
2022/03/04 01:22:57;;;;;;;0.50;0.50;;;2.90;99.90;;;;;;5022483;28;20190;-85
2022/03/04 01:25:23;;;;;;;0.80;0.80;;;2.90;99.90;;;;;;5026688;28;20190;-84
2022/03/04 01:27:48;;;;;;;1.07;1.07;;;2.90;99.90;;;;;;5026240;28;20199;-85
2022/03/04 01:30:14;;;;;;;2.57;1.03;;;2.90;99.90;;;;;;5025674;28;20206;-85
2022/03/04 01:32:40;;;;;;;1.80;0.93;;;2.90;99.90;;;;;;5021205;28;20190;-85
2022/03/04 01:35:06;;;;;;;0.93;0.67;;;2.90;99.90;;;;;;5026745;28;20286;-84
2022/03/04 01:37:32;;;;;;;1.07;1.07;;;2.90;99.90;;;;;;5023014;28;20625;-84
2022/03/04 01:39:58;;;;;;;1.20;1.20;;;2.90;99.90;;;;;;5025034;28;20317;-85
2022/03/04 01:42:23;;;;;;;2.37;0.70;;;2.90;99.90;;;;;;5023728;28;20182;-85
2022/03/04 01:44:49;;;;;;;0.87;0.87;;;2.80;99.90;;;;;;5025038;28;20281;-85
2022/03/04 01:47:14;;;;;;;0.80;0.80;;;2.80;99.90;;;;;;5020960;28;20186;-85
2022/03/04 01:49:40;;;;;;;3.83;1.13;;;2.90;99.90;;;;;;5023576;28;20208;-85
2022/03/04 01:52:07;;;;;;;0.60;0.60;;;2.80;99.90;;;;;;5024203;28;20200;-85
2022/03/04 01:54:33;;;;;;;1.13;1.07;;;2.80;99.90;;;;;;5026312;28;20220;-85
2022/03/04 01:56:58;;;;;;;0.50;0.50;;;2.80;99.90;;;;;;5025426;28;20434;-85
2022/03/04 01:59:24;;;;;;;1.20;1.00;;;2.70;99.90;;;;;;5022893;28;20218;-85
2022/03/04 02:01:51;;;;;;;0.67;0.67;;;2.70;99.90;;;;;;5025872;28;20186;-85
2022/03/04 02:04:23;;;;;;;0.30;0.30;;;2.80;99.90;;;;;;5021389;28;20198;-85
2022/03/04 02:06:49;;;;;;;1.13;0.30;;;2.70;99.90;;;;;;5023601;28;20685;-84
2022/03/04 02:09:15;;;;;;;0.97;0.97;;;2.80;99.90;;;;;;5024495;28;20243;-85
2022/03/04 02:11:43;;;;;;;0.70;0.70;;;2.80;99.90;;;;;;5024351;28;20283;-85
2022/03/04 02:14:09;;;;;;;0.87;0.87;;;2.80;99.90;;;;;;5023511;28;20267;-84
2022/03/04 02:16:40;;;;;;;1.93;1.53;;;2.90;99.90;;;;;;5025168;28;20640;-84
2022/03/04 02:19:05;;;;;;;0.73;0.73;;;2.80;99.90;;;;;;5023583;28;20221;-85
2022/03/04 02:21:32;;;;;;;1.07;0.77;;;2.90;99.90;;;;;;5026932;28;20191;-84
2022/03/04 02:23:58;;;;;;;2.20;0.80;;;2.80;99.90;;;;;;5022296;28;20184;-85
2022/03/04 02:26:25;;;;;;;0.73;0.73;;;2.80;99.90;;;;;;5023967;28;20191;-85
2022/03/04 02:28:50;;;;;;;1.53;1.43;;;2.80;99.90;;;;;;5021687;28;20703;-85
2022/03/04 02:31:18;;;;;;;1.63;1.53;;;2.80;99.90;;;;;;5023345;28;20273;-84
2022/03/04 02:33:45;;;;;;;1.53;0.47;;;2.70;99.90;;;;;;5025187;28;20193;-85
2022/03/04 02:36:15;;;;;;;0.67;0.67;;;2.60;99.90;;;;;;5024306;28;20757;-85
2022/03/04 02:38:41;;;;;;;4.60;1.33;;;2.40;99.90;;;;;;5040964;28;21023;-85
2022/03/04 02:41:07;;;;;;;0.60;0.57;;;2.30;99.90;;;;;;5022456;28;20193;-85
2022/03/04 02:43:32;;;;;;;1.70;1.57;;;2.10;99.90;;;;;;5018127;28;20187;-85
2022/03/04 02:45:58;;;;;;;0.23;0.23;;;2.10;99.90;;;;;;5020725;28;20281;-84
2022/03/04 02:48:24;;;;;;;0.20;0.20;;;2.00;99.90;;;;;;5019683;28;20273;-85
2022/03/04 02:50:49;;;;;;;0.40;0.40;;;2.00;99.90;;;;;;5022044;28;20206;-85
2022/03/04 02:53:15;;;;;;;0.63;0.63;;;2.10;99.90;;;;;;5026037;28;20670;-84
2022/03/04 02:55:41;;;;;;;0.50;0.50;;;2.10;99.90;;;;;;5023400;28;20190;-84
2022/03/04 02:58:06;;;;;;;0.30;0.30;;;2.10;99.90;;;;;;5023240;28;20195;-85
2022/03/04 03:00:33;;;;;;;0.93;0.90;;;2.10;99.90;;;;;;5023804;28;20221;-85
2022/03/04 03:03:00;;;;;;;1.03;0.93;;;2.20;99.90;;;;;;5024693;28;20218;-84
2022/03/04 03:05:25;;;;;;;0.60;0.60;;;2.20;99.90;;;;;;5023835;28;20198;-85
2022/03/04 03:07:51;;;;;;;0.33;0.33;;;2.20;99.90;;;;;;5021293;28;20195;-85
2022/03/04 03:10:16;;;;;;;0.50;0.50;;;2.20;99.90;;;;;;5023920;28;20215;-85
2022/03/04 03:12:42;;;;;;;0.80;0.80;;;2.20;99.90;;;;;;5019887;28;20197;-84
2022/03/04 03:15:09;;;;;;;0.80;0.80;;;2.20;99.90;;;;;;5018272;28;20666;-86
2022/03/04 03:17:35;;;;;;;0.57;0.57;;;2.30;99.90;;;;;;5025224;28;20188;-84
2022/03/04 03:20:01;;;;;;;1.00;0.80;;;2.30;99.90;;;;;;5020410;28;20220;-85
2022/03/04 03:22:27;;;;;;;1.13;1.03;;;2.30;99.90;;;;;;5021756;28;20190;-84
2022/03/04 03:24:54;;;;;;;1.43;0.53;;;2.30;99.90;;;;;;5020376;28;20679;-84
2022/03/04 03:27:19;;;;;;;2.30;0.80;;;2.20;99.90;;;;;;5022871;28;20209;-84
2022/03/04 03:29:45;;;;;;;1.33;1.23;;;2.20;99.90;;;;;;5024271;28;20213;-84
2022/03/04 03:32:11;;;;;;;1.20;1.03;;;2.10;99.90;;;;;;5017929;28;20244;-84
2022/03/04 03:34:38;;;;;;;0.53;0.53;;;2.10;99.90;;;;;;5022393;28;20198;-85
2022/03/04 03:37:04;;;;;;;1.60;1.03;;;2.00;99.90;;;;;;5020582;28;20219;-85
2022/03/04 03:39:29;;;;;;;0.87;0.87;;;1.90;99.90;;;;;;5021375;28;20699;-85
2022/03/04 03:41:55;;;;;;;0.47;0.47;;;1.90;99.90;;;;;;5021937;28;20189;-85
2022/03/04 03:44:20;;;;;;;0.30;0.20;;;1.90;99.90;;;;;;5020470;28;20201;-84
2022/03/04 03:46:46;;;;;;;1.00;1.00;;;1.80;99.90;;;;;;5020746;28;20222;-85
2022/03/04 03:49:12;;;;;;;0.33;0.33;;;1.70;99.90;;;;;;5020633;28;20746;-84
2022/03/04 03:51:37;;;;;;;0.90;0.90;;;1.60;99.90;;;;;;5023275;28;20190;-85
2022/03/04 03:54:03;;;;;;;1.20;1.20;;;1.50;99.90;;;;;;5019481;28;20199;-84
2022/03/04 03:56:28;;;;;;;0.57;0.57;;;1.40;99.90;;;;;;5024162;28;20202;-85
2022/03/04 03:58:54;;;;;;;0.30;0.30;;;1.30;99.90;;;;;;5023302;28;20234;-85
2022/03/04 04:01:19;;;;;;;0.87;0.87;;;1.30;99.90;;;;;;5024529;28;20189;-85
2022/03/04 04:03:45;;;;;;;1.43;0.67;;;1.20;99.90;;;;;;5019580;28;20189;-85
2022/03/04 04:06:11;;;;;;;0.70;0.50;;;1.20;99.90;;;;;;5021970;28;20201;-84
2022/03/04 04:08:36;;;;;;;0.80;0.80;;;1.20;99.90;;;;;;5017871;28;20210;-84
2022/03/04 04:11:02;;;;;;;1.30;1.13;;;1.20;99.90;;;;;;5023020;28;20645;-84
2022/03/04 04:13:28;;;;;;;0.70;0.53;;;1.10;99.90;;;;;;5024215;28;20330;-84
2022/03/04 04:15:53;;;;;;;0.93;0.87;;;1.10;99.90;;;;;;5017636;28;20181;-84
2022/03/04 04:18:19;;;;;;;0.67;0.47;;;1.00;99.90;;;;;;5019694;28;20734;-84
2022/03/04 04:20:44;;;;;;;0.60;0.60;;;1.00;99.90;;;;;;5018099;28;20220;-84
2022/03/04 04:23:10;;;;;;;1.73;1.07;;;1.00;99.90;;;;;;5025845;28;20220;-84
2022/03/04 04:25:36;;;;;;;0.93;0.93;;;1.10;99.90;;;;;;5018634;28;20185;-85
2022/03/04 04:28:01;;;;;;;1.40;0.50;;;1.20;99.90;;;;;;5024963;28;20182;-84
2022/03/04 04:30:29;;;;;;;1.77;1.03;;;1.30;99.90;;;;;;5023934;28;20221;-83
2022/03/04 04:32:55;;;;;;;1.53;0.93;;;1.20;99.90;;;;;;5023316;28;21063;-84
2022/03/04 04:35:20;;;;;;;0.57;0.57;;;1.20;99.90;;;;;;5022780;28;20185;-84
2022/03/04 04:37:46;;;;;;;0.93;0.60;;;1.20;99.90;;;;;;5022218;28;20212;-84
2022/03/04 04:40:12;;;;;;;0.60;0.60;;;1.20;99.90;;;;;;5026075;28;20569;-84
2022/03/04 04:42:37;;;;;;;1.17;0.60;;;1.20;99.90;;;;;;5023731;28;20245;-83
2022/03/04 04:45:03;;;;;;;0.57;0.57;;;1.20;99.90;;;;;;5022290;28;20201;-84
2022/03/04 04:47:30;;;;;;;0.50;0.50;;;1.20;99.90;;;;;;5024561;28;21061;-83
2022/03/04 04:49:55;;;;;;;1.60;1.50;;;1.20;99.90;;;;;;5022913;28;20261;-83
2022/03/04 04:52:21;;;;;;;0.67;0.67;;;1.20;99.90;;;;;;5018193;28;20202;-84
2022/03/04 04:54:47;;;;;;;0.50;0.50;;;1.30;99.90;;;;;;5017848;28;20293;-84
2022/03/04 04:57:13;;;;;;;0.77;0.77;;;1.20;99.90;;;;;;5020431;28;20281;-84
2022/03/04 04:59:38;;;;;;;3.30;1.57;;;1.30;99.90;;;;;;5023750;28;20220;-83
2022/03/04 05:02:04;;;;;;;1.10;0.70;;;1.30;99.90;;;;;;5024040;28;20220;-84
2022/03/04 05:04:30;;;;;;;0.93;0.93;;;1.30;99.90;;;;;;5025706;28;20201;-84
2022/03/04 05:06:56;;;;;;;3.10;1.27;;;1.40;99.90;;;;;;5028485;28;20601;-83
2022/03/04 05:09:21;;;;;;;0.70;0.70;;;1.40;99.90;;;;;;5022279;28;20213;-85
2022/03/04 05:11:47;;;;;;;1.33;1.20;;;1.50;99.90;;;;;;5022463;28;20328;-84
2022/03/04 05:14:13;;;;;;;1.20;1.00;;;1.50;99.90;;;;;;5019708;28;20772;-85
2022/03/04 05:16:39;;;;;;;3.10;0.90;;;1.50;99.90;;;;;;5024658;28;20196;-84
2022/03/04 05:19:05;;;;;;;0.50;0.50;;;1.50;99.90;;;;;;5023318;28;20223;-84
2022/03/04 05:21:31;;;;;;;1.17;1.17;;;1.50;99.90;;;;;;5022387;28;20190;-84
2022/03/04 05:23:59;;;;;;;2.10;1.90;;;1.50;99.90;;;;;;5019922;28;20186;-84
2022/03/04 05:26:39;;;;;;;0.83;0.40;;;1.40;99.90;;;;;;5021263;28;20186;-84
2022/03/04 05:29:09;;;;;;;1.03;0.60;;;1.40;99.90;;;;;;5041918;28;20217;-84
2022/03/04 05:31:35;;;;;;;0.87;0.83;;;1.30;99.90;;;;;;5020938;28;20204;-83
2022/03/04 05:34:00;;;;;;;0.53;0.53;;;1.40;99.90;;;;;;5021425;28;20197;-84
2022/03/04 05:36:26;;;;;;;0.40;0.40;;;1.40;99.90;;;;;;5020977;28;20832;-83
2022/03/04 05:38:52;;;;;;;1.77;1.67;;;1.50;99.90;;;;;;5025597;28;20220;-83
2022/03/04 05:41:18;;;;;;;1.70;1.37;;;1.60;99.90;;;;;;5022825;28;20188;-84
2022/03/04 05:43:44;;;;;;;0.93;0.70;;;1.60;99.90;;;;;;5022261;28;20189;-84
2022/03/04 05:46:10;;;;;;;0.57;0.57;;;1.60;99.90;;;;;;5023001;28;20658;-84
2022/03/04 05:48:36;;;;;;;0.93;0.93;;;1.70;99.90;;;;;;5019427;28;20246;-82
2022/03/04 05:51:03;;;;;;;0.80;0.80;;;1.70;99.90;;;;;;5024183;28;20190;-82
2022/03/04 05:53:28;;;;;;;0.93;0.80;;;1.60;99.90;;;;;;5028145;28;20231;-82
2022/03/04 05:55:54;;;;;;;1.17;1.03;;;1.60;99.90;;;;;;5026365;28;20605;-83
2022/03/04 05:58:19;;;;;;;1.70;1.07;;;1.60;99.90;;;;;;5024748;28;20195;-83
2022/03/04 06:00:45;;;;;;;2.37;1.07;;;1.60;99.90;;;;;;5032668;28;21006;-83
2022/03/04 06:03:10;;;;;;;0.50;0.50;;;1.60;99.90;;;;;;5027035;28;20204;-83
2022/03/04 06:05:36;;;;;;;0.40;0.40;;;1.70;99.90;;;;;;5019966;28;20573;-80
2022/03/04 06:08:01;;;;;;;0.80;0.80;;;1.70;99.90;;;;;;5022787;28;20658;-81
2022/03/04 06:10:28;;;;;;;0.83;0.83;;;1.70;99.90;;;;;;5026878;28;20790;-82
2022/03/04 06:12:53;;;;;;;0.27;0.27;;;1.70;99.90;;;;;;5024558;28;20212;-82
2022/03/04 06:15:19;;;;;;;0.60;0.60;;;1.80;99.90;;;;;;5020666;28;20275;-82
2022/03/04 06:17:46;;;;;;;0.77;0.63;;;1.70;99.90;;;;;;5025404;28;20243;-81
2022/03/04 06:20:12;;;;;;;0.80;0.80;;;1.70;99.90;;;;;;5024553;28;21162;-82
2022/03/04 06:22:37;;;;;;;0.83;0.83;;;1.80;99.90;;;;;;5023560;28;20267;-83
2022/03/04 06:25:04;;;;;;;1.90;0.70;;;1.90;99.90;;;;;;5024098;28;20573;-83
2022/03/04 06:27:31;;;;;;;3.27;0.83;;;1.90;99.90;;;;;;5021498;28;20248;-82
2022/03/04 06:29:56;;;;;;;0.60;0.60;;;2.00;99.90;;;;;;5028940;28;20206;-83
2022/03/04 06:32:22;;;;;;;1.00;1.00;;;2.10;99.90;;;;;;5028233;28;20209;-87
2022/03/04 06:34:47;;;;;;;0.87;0.87;;;2.20;99.90;;;;;;5029372;28;20193;-81
2022/03/04 06:37:13;;;;;;;1.10;1.00;;;2.20;99.90;;;;;;5027899;28;20186;-81
2022/03/04 06:39:39;;;;;;;0.50;0.50;;;2.30;99.90;;;;;;5026692;28;20257;-82
2022/03/04 06:42:05;;;;;;;1.53;1.00;;;2.40;99.90;;;;;;5026211;28;20184;-81
2022/03/04 06:44:31;;;;;;;0.70;0.43;;;2.50;99.90;;;;;;5024732;28;20186;-81
2022/03/04 06:46:57;;;;;;;0.87;0.60;;;2.40;99.90;;;;;;5027229;28;20260;-81
2022/03/04 06:49:22;;;;;;;0.57;0.57;;;2.40;99.90;;;;;;5028335;28;21614;-81
2022/03/04 06:51:48;;;;;;;1.40;1.27;;;2.20;99.90;;;;;;5023954;28;20670;-81
2022/03/04 06:54:13;;;;;;;2.10;0.90;;;2.10;99.90;;;;;;5027605;28;20203;-81
2022/03/04 06:56:39;;;;;;;1.27;1.20;;;2.00;99.90;;;;;;5028143;28;20197;-81
2022/03/04 06:59:05;;;;;;;0.90;0.87;;;2.10;99.90;;;;;;5025626;28;20225;-81
2022/03/04 07:01:30;;;;;;;1.07;0.83;;;2.20;99.90;;;;;;5029079;28;20193;-81
2022/03/04 07:03:56;;;;;;;0.97;0.93;;;2.30;99.90;;;;;;5025940;28;20641;-81
2022/03/04 07:06:21;;;;;;;5.70;1.23;;;2.30;99.90;;;;;;5019598;28;20226;-80
2022/03/04 07:08:47;;;;;;;2.07;1.63;;;2.40;99.90;;;;;;5018546;28;20247;-81
2022/03/04 07:11:13;;;;;;;4.27;0.93;;;2.50;99.90;;;;;;5024089;28;20193;-81
2022/03/04 07:13:38;;;;;;;2.20;0.93;;;2.50;99.90;;;;;;5025042;28;20673;-81
2022/03/04 07:16:04;;;;;;;1.53;1.23;;;2.60;99.90;;;;;;5018123;28;20185;-81
2022/03/04 07:18:31;;;;;;;1.63;1.53;;;2.70;99.90;;;;;;5024161;28;20283;-81
2022/03/04 07:20:57;;;;;;;2.37;1.40;;;2.80;99.90;;;;;;5021125;28;20187;-80
2022/03/04 07:23:24;;;;;;;1.37;1.27;;;2.90;99.90;;;;;;5026338;28;20183;-81
2022/03/04 07:25:49;;;;;;;2.00;1.00;;;3.00;99.90;;;;;;5019797;28;20220;-81
2022/03/04 07:28:15;;;;;;;1.27;1.17;;;3.10;99.90;;;;;;5022305;28;20179;-80
2022/03/04 07:30:40;;;;;;;2.30;1.47;;;3.30;99.90;;;;;;5018373;28;20705;-81
2022/03/04 07:33:06;;;;;;;1.47;1.43;;;3.50;99.90;;;;;;5018545;28;20631;-81
2022/03/04 07:35:32;;;;;;;0.80;0.80;;;3.60;99.90;;;;;;5026317;28;20190;-81
2022/03/04 07:37:58;;;;;;;1.53;1.17;;;3.70;99.90;;;;;;5022979;28;20189;-81
2022/03/04 07:40:23;;;;;;;3.33;1.73;;;3.90;99.90;;;;;;5026964;28;20214;-81
2022/03/04 07:42:49;;;;;;;1.13;1.03;;;3.90;99.90;;;;;;5019737;28;20292;-80
2022/03/04 07:45:14;;;;;;;0.67;0.67;;;3.90;99.90;;;;;;5021410;28;20186;-81
2022/03/04 07:47:41;;;;;;;3.20;1.40;;;4.00;99.90;;;;;;5018946;28;20187;-81
2022/03/04 07:50:09;;;;;;;3.33;1.30;;;4.20;99.90;;;;;;5022927;28;20207;-81
2022/03/04 07:52:35;;;;;;;0.67;0.67;;;4.40;99.90;;;;;;5020555;28;20190;-81
2022/03/04 07:55:03;;;;;;;2.70;1.43;;;4.50;99.90;;;;;;5021338;28;20572;-80
2022/03/04 07:57:28;;;;;;;1.47;1.37;;;4.50;99.90;;;;;;5020254;28;20260;-81
2022/03/04 07:59:54;;;;;;;2.17;1.97;;;4.40;99.90;;;;;;5022648;28;20694;-81
2022/03/04 08:02:20;;;;;;;1.40;1.17;;;4.50;99.90;;;;;;5024393;28;20216;-81
2022/03/04 08:04:46;;;;;;;2.30;1.63;;;4.40;99.90;;;;;;5025576;28;20427;-81
2022/03/04 08:07:12;;;;;;;4.70;1.63;;;4.50;99.90;;;;;;5019094;28;20240;-80
2022/03/04 08:09:37;;;;;;;1.30;0.70;;;4.60;99.90;;;;;;5023587;28;20206;-81
2022/03/04 08:12:03;;;;;;;3.27;2.17;;;4.70;99.90;;;;;;5020686;28;20218;-79
2022/03/04 08:14:29;;;;;;;1.80;1.10;;;4.40;99.90;;;;;;5016856;28;20228;-81
2022/03/04 08:16:54;;;;;;;0.53;0.53;;;4.40;99.90;;;;;;5016850;28;20272;-80
2022/03/04 08:19:20;;;;;;;2.47;1.43;;;4.50;99.90;;;;;;5017384;28;20202;-83
2022/03/04 08:21:47;;;;;;;3.27;2.13;;;4.70;99.90;;;;;;5017588;28;20266;-81
2022/03/04 08:24:12;;;;;;;2.67;2.17;;;4.90;99.90;;;;;;5017513;28;20217;-81
2022/03/04 08:26:41;;;;;;;6.73;2.40;;;5.00;99.90;;;;;;5016853;28;20207;-80
2022/03/04 08:29:10;;;;;;;1.63;1.23;;;4.60;99.90;;;;;;5023835;28;20234;-81
2022/03/04 08:31:35;;;;;;;1.90;0.87;;;5.00;99.90;;;;;;5023001;28;20188;-81
2022/03/04 08:34:01;;;;;;;2.53;1.07;;;4.80;99.90;;;;;;5025093;28;20861;-81
2022/03/04 08:36:26;;;;;;;2.07;1.87;;;5.20;99.90;;;;;;5026255;28;20268;-81
2022/03/04 08:38:52;;;;;;;2.53;2.33;;;4.80;99.90;;;;;;5026586;28;20201;-80
2022/03/04 08:41:18;;;;;;;2.33;1.73;;;4.80;99.90;;;;;;5024971;28;20235;-81
2022/03/04 08:43:46;;;;;;;1.77;1.50;;;5.10;99.90;;;;;;5025205;28;20170;-81
2022/03/04 08:46:13;;;;;;;5.17;1.83;;;4.90;99.90;;;;;;5015670;28;20178;-82
2022/03/04 08:48:39;;;;;;;4.47;3.57;;;5.20;99.90;;;;;;5026316;28;20281;-81
2022/03/04 08:51:05;;;;;;;1.37;1.23;;;5.00;99.90;;;;;;5023955;28;20174;-80
2022/03/04 08:53:31;;;;;;;4.03;2.10;;;4.90;99.90;;;;;;5019476;28;20706;-80
2022/03/04 08:55:56;;;;;;;2.27;2.07;;;5.40;99.90;;;;;;5022937;28;20209;-80
2022/03/04 08:58:22;;;;;;;1.33;1.23;;;5.30;99.90;;;;;;5024519;28;20277;-80
2022/03/04 09:00:48;;;;;;;2.73;2.13;;;5.20;99.90;;;;;;5024920;28;20209;-81
2022/03/04 09:03:13;;;;;;;4.77;2.97;;;5.40;99.90;;;;;;5029803;28;20199;-80
2022/03/04 09:05:39;;;;;;;1.73;1.43;;;5.70;99.90;;;;;;5027138;28;20203;-80
2022/03/04 09:08:04;;;;;;;2.17;1.50;;;5.70;99.90;;;;;;5029547;28;20193;-80
2022/03/04 09:10:30;;;;;;;2.80;1.50;;;5.60;99.90;;;;;;5033556;28;20289;-81
2022/03/04 09:12:56;;;;;;;1.93;1.83;;;5.80;99.90;;;;;;5032789;28;20280;-80
2022/03/04 09:15:21;;;;;;;0.80;0.63;;;6.00;99.90;;;;;;5034617;28;20194;-80
2022/03/04 09:17:47;;;;;;;1.70;1.60;;;6.30;99.90;;;;;;5037787;28;20186;-80
2022/03/04 09:20:14;;;;;;;2.77;1.90;;;6.30;99.90;;;;;;5037740;28;20351;-80
2022/03/04 09:22:40;;;;;;;3.13;1.97;;;5.90;99.90;;;;;;5031761;28;20557;-80
2022/03/04 09:25:07;;;;;;;3.17;1.27;;;6.10;99.90;;;;;;5032417;28;20213;-80
2022/03/04 09:27:32;;;;;;;1.97;1.47;;;6.10;99.90;;;;;;5031334;28;20612;-80
2022/03/04 09:29:58;;;;;;;3.60;2.53;;;6.30;99.90;;;;;;5034452;28;20202;-80
2022/03/04 09:32:23;;;;;;;2.47;2.27;;;6.10;99.90;;;;;;5035055;28;20190;-80
2022/03/04 09:34:50;;;;;;;5.77;2.10;;;6.20;99.90;;;;;;5031151;28;20190;-80
2022/03/04 09:37:16;;;;;;;1.60;1.47;;;6.20;99.90;;;;;;5028104;28;20208;-80
2022/03/04 09:39:41;;;;;;;1.67;1.57;;;6.40;99.90;;;;;;5028367;28;20256;-80
2022/03/04 09:42:07;;;;;;;2.77;1.93;;;6.40;99.90;;;;;;5024296;28;20179;-80
2022/03/04 09:44:33;;;;;;;2.03;1.67;;;6.90;99.90;;;;;;5027071;28;20214;-80
2022/03/04 09:47:00;;;;;;;3.93;1.37;;;6.90;99.90;;;;;;5024462;28;20206;-81
2022/03/04 09:49:31;;;;;;;2.77;2.57;;;6.60;99.90;;;;;;5023815;28;20206;-80
2022/03/04 09:51:56;;;;;;;1.67;1.43;;;6.40;99.90;;;;;;5027899;28;20183;-81
2022/03/04 09:54:25;;;;;;;2.40;2.20;;;7.00;99.90;;;;;;5030427;28;20198;-81
2022/03/04 09:56:51;;;;;;;1.83;1.73;;;7.30;99.90;;;;;;5027349;28;20250;-81
2022/03/04 09:59:17;;;;;;;4.03;2.07;;;7.40;99.90;;;;;;5026560;28;20293;-81
2022/03/04 10:01:42;;;;;;;3.57;2.23;;;7.20;99.90;;;;;;5027058;28;20181;-80
2022/03/04 10:04:08;;;;;;;1.23;1.00;;;6.70;99.90;;;;;;5027844;28;20210;-81
2022/03/04 10:06:38;;;;;;;3.43;1.97;;;6.90;99.90;;;;;;5022436;28;20718;-81
2022/03/04 10:09:03;;;;;;;1.53;0.63;;;7.40;99.90;;;;;;5026835;28;20242;-81
2022/03/04 10:11:32;;;;;;;4.07;2.67;;;7.40;99.90;;;;;;5026250;28;20193;-81
2022/03/04 10:14:04;;;;;;;2.27;1.67;;;7.60;99.90;;;;;;5027737;28;20188;-81
2022/03/04 10:16:32;;;;;;;2.33;1.77;;;7.80;99.90;;;;;;5027069;28;20225;-81
2022/03/04 10:19:06;;;;;;;2.83;2.10;;;8.00;99.90;;;;;;5023747;28;20218;-81
2022/03/04 10:21:53;;;;;;;1.70;1.23;;;7.60;99.90;;;;;;5029578;28;20562;-80
2022/03/04 10:24:41;;;;;;;2.37;2.17;;;7.20;99.90;;;;;;5028307;28;20640;-80
2022/03/04 10:27:10;;;;;;;7.17;1.87;;;6.70;99.90;;;;;;5027377;28;20181;-81
2022/03/04 10:29:47;;;;;;;1.30;1.27;;;7.00;99.90;;;;;;5030189;28;21204;-81
2022/03/04 10:32:24;;;;;;;7.47;2.47;;;7.20;99.90;;;;;;5024410;28;20199;-81
2022/03/04 10:35:04;;;;;;;2.30;2.13;;;7.40;99.90;;;;;;5028719;28;20269;-81
2022/03/04 10:37:52;;;;;;;3.10;1.90;;;6.90;99.90;;;;;;5027599;28;20196;-85
2022/03/04 10:40:21;;;;;;;2.73;1.63;;;7.50;99.90;;;;;;5023661;28;20214;-83
2022/03/04 10:42:51;;;;;;;4.50;2.13;;;7.70;99.90;;;;;;5023553;28;20185;-84
2022/03/04 10:45:29;;;;;;;2.63;1.57;;;7.80;99.90;;;;;;5026896;28;20258;-83
2022/03/04 10:47:59;;;;;;;2.27;1.83;;;7.60;99.90;;;;;;5026646;28;20179;-84
2022/03/04 10:50:33;;;;;;;3.33;1.43;;;7.70;99.90;;;;;;5021799;28;20219;-84
2022/03/04 10:53:05;;;;;;;3.23;2.03;;;7.70;99.90;;;;;;5023976;28;20248;-84
2022/03/04 10:55:30;;;;;;;1.50;1.40;;;7.70;99.90;;;;;;5024567;28;20193;-84
2022/03/04 10:57:57;;;;;;;3.37;1.73;;;7.50;99.90;;;;;;5023813;28;20288;-84
2022/03/04 11:00:29;;;;;;;1.23;1.17;;;7.10;99.90;;;;;;5026620;28;20212;-84
2022/03/04 11:02:55;;;;;;;1.63;1.47;;;7.50;99.90;;;;;;5024886;28;20960;-83
2022/03/04 11:05:22;;;;;;;2.10;1.90;;;7.50;99.90;;;;;;5021649;28;20258;-84
2022/03/04 11:07:48;;;;;;;4.10;2.20;;;7.30;99.90;;;;;;5041871;28;20188;-84
2022/03/04 11:10:14;;;;;;;2.97;1.37;;;7.50;99.90;;;;;;5021937;28;20212;-82
2022/03/04 11:12:42;;;;;;;3.07;1.17;;;7.80;99.90;;;;;;5022338;28;20656;-84
2022/03/04 11:15:11;;;;;;;2.37;1.53;;;7.90;99.90;;;;;;5025724;28;20200;-83
2022/03/04 11:17:37;;;;;;;3.63;1.63;;;7.90;99.90;;;;;;5019743;28;20192;-83
2022/03/04 11:20:03;;;;;;;5.03;1.90;;;7.80;99.90;;;;;;5024285;28;20664;-84
2022/03/04 11:22:29;;;;;;;4.93;1.80;;;7.60;99.90;;;;;;5021202;28;20187;-84
2022/03/04 11:25:02;;;;;;;1.57;1.47;;;7.70;99.90;;;;;;5027455;28;20235;-84
2022/03/04 11:27:29;;;;;;;1.70;1.20;;;7.90;99.90;;;;;;5018914;28;20249;-83
2022/03/04 11:29:57;;;;;;;2.57;2.37;;;8.30;99.90;;;;;;5021656;28;20213;-84
2022/03/04 11:32:29;;;;;;;4.67;1.50;;;8.30;99.90;;;;;;5017427;28;20192;-84
2022/03/04 11:34:55;;;;;;;2.10;1.80;;;8.70;99.90;;;;;;5021520;28;20694;-83
2022/03/04 11:37:21;;;;;;;2.80;2.27;;;8.10;99.90;;;;;;5018889;28;20202;-84
2022/03/04 11:40:32;;;;;;;2.80;1.73;;;8.50;99.90;;;;;;5020698;28;20219;-83
2022/03/04 11:42:52;;;;;;;3.20;2.80;;;8.80;99.90;;;;;;5023182;28;20210;-83
2022/03/04 11:45:32;;;;;;;3.67;1.90;;;8.50;99.90;;;;;;5016253;28;20193;-84
2022/03/04 11:48:04;;;;;;;4.60;2.27;;;8.00;99.90;;;;;;5023071;28;20194;-83
2022/03/04 11:50:36;;;;;;;2.17;1.83;;;7.70;99.90;;;;;;5017681;28;20292;-84
2022/03/04 11:53:22;;;;;;;2.63;2.43;;;7.70;99.90;;;;;;5021320;28;20285;-84
2022/03/04 11:56:14;;;;;;;3.10;2.00;;;7.70;99.90;;;;;;5020122;28;20277;-84
2022/03/04 11:59:18;;;;;;;4.63;2.50;;;7.80;99.90;;;;;;5019364;28;20311;-84
2022/03/04 12:01:45;;;;;;;2.10;1.30;;;7.90;99.90;;;;;;5017987;28;20179;-84
2022/03/04 12:04:12;;;;;;;2.87;2.60;;;8.50;99.90;;;;;;5019268;28;20184;-84
2022/03/04 12:06:39;;;;;;;0.70;0.70;;;8.60;99.90;;;;;;5017148;28;20615;-85
2022/03/04 12:09:28;;;;;;;3.17;1.97;;;9.10;99.90;;;;;;5024829;28;20233;-84
2022/03/04 12:12:23;;;;;;;8.00;1.77;;;9.00;99.90;;;;;;5021432;28;20279;-84
2022/03/04 12:14:53;;;;;;;10.43;1.50;;;8.40;99.90;;;;;;5024336;28;20281;-83
2022/03/04 12:17:20;;;;;;;3.03;1.83;;;8.60;99.90;;;;;;5022931;28;20198;-83
2022/03/04 12:19:48;;;;;;;2.20;1.67;;;9.00;99.90;;;;;;5026729;28;20215;-83
2022/03/04 12:22:15;;;;;;;2.80;0.87;;;9.50;99.90;;;;;;5022926;28;20197;-84
2022/03/04 12:24:55;;;;;;;6.33;2.17;;;9.80;99.90;;;;;;5025818;28;20188;-84
2022/03/04 12:27:39;;;;;;;1.53;1.40;;;9.80;99.90;;;;;;5023896;28;20195;-84
2022/03/04 12:30:19;;;;;;;3.00;1.90;;;9.10;99.90;;;;;;5026369;28;20218;-84
2022/03/04 12:32:50;;;;;;;1.97;1.53;;;8.90;99.90;;;;;;5024837;28;20280;-84
2022/03/04 12:35:17;;;;;;;1.60;1.50;;;9.10;99.90;;;;;;5024067;28;20656;-84
2022/03/04 12:37:43;;;;;;;6.37;1.53;;;9.30;99.90;;;;;;5025801;28;20194;-84
2022/03/04 12:40:09;;;;;;;6.47;2.50;;;9.70;99.90;;;;;;5021619;28;20673;-83
2022/03/04 12:42:35;;;;;;;1.43;1.33;;;9.00;99.90;;;;;;5024214;28;20551;-85
2022/03/04 12:45:01;;;;;;;4.30;2.77;;;9.60;99.90;;;;;;5020209;28;20179;-85
2022/03/04 12:47:27;;;;;;;3.23;1.97;;;9.50;99.90;;;;;;5022191;28;20741;-85
2022/03/04 12:49:54;;;;;;;6.63;1.83;;;9.80;99.90;;;;;;5022791;28;20636;-81
2022/03/04 12:52:23;;;;;;;4.20;1.97;;;9.80;99.90;;;;;;5019803;28;20189;-82
2022/03/04 12:54:49;;;;;;;3.23;2.20;;;10.10;99.90;;;;;;5024437;28;20284;-81
2022/03/04 12:57:16;;;;;;;3.33;1.73;;;9.60;99.90;;;;;;5020800;28;20190;-82
2022/03/04 12:59:47;;;;;;;2.43;1.90;;;9.90;99.90;;;;;;5026875;28;20210;-82